Time;durP1;ratioP1;P1;durP2;ratioP2;P2;SDS_P1;SDS_P2;PMS_P1;PMS_P2;Temp;Humidity;BMP_temperature;BMP_pressure;BME280_temperature;BME280_humidity;BME280_pressure;Samples;Min_cycle;Max_cycle;Signal;HPM_P1;HPM_P2
2021/01/25 00:01:36;;;;;;;39.87;22.30;;;;;;;0.40;86.12;98620.45;103238;1105;84916;-67
2021/01/25 00:03:42;;;;;;;36.60;21.15;;;;;;;0.50;86.05;98618.44;103327;1105;73080;-68
2021/01/25 00:05:48;;;;;;;37.03;22.33;;;;;;;0.61;85.91;98619.91;103276;1105;86126;-67
2021/01/25 00:07:54;;;;;;;35.30;20.60;;;;;;;0.65;85.99;98618.58;103239;1105;80064;-67
2021/01/25 00:10:04;;;;;;;40.87;22.10;;;;;;;0.69;86.00;98616.42;103294;1105;64835;-68
2021/01/25 00:12:10;;;;;;;37.05;20.75;;;;;;;0.68;85.88;98614.75;103291;1105;83071;-67
2021/01/25 00:14:16;;;;;;;38.07;22.70;;;;;;;0.65;85.78;98615.09;103303;1105;72356;-67
2021/01/25 00:16:22;;;;;;;37.70;21.67;;;;;;;0.71;85.92;98614.41;103293;1105;85562;-72
2021/01/25 00:18:27;;;;;;;35.13;20.80;;;;;;;0.75;85.81;98613.05;103292;1105;77894;-68
2021/01/25 00:20:33;;;;;;;37.53;21.87;;;;;;;0.79;85.77;98617.88;103342;1105;64863;-69
2021/01/25 00:22:39;;;;;;;40.43;23.23;;;;;;;0.83;85.75;98613.02;103275;1105;83351;-69
2021/01/25 00:24:44;;;;;;;38.23;22.33;;;;;;;0.88;85.71;98610.70;103301;1105;73307;-68
2021/01/25 00:26:50;;;;;;;35.37;20.07;;;;;;;0.87;85.84;98614.36;103321;1105;86713;-75
2021/01/25 00:28:55;;;;;;;37.23;22.43;;;;;;;0.91;85.93;98615.66;103248;1105;77576;-77
2021/01/25 00:31:02;;;;;;;36.33;21.83;;;;;;;0.95;85.74;98625.79;103298;1106;64905;-71
2021/01/25 00:33:08;;;;;;;39.70;21.13;;;;;;;0.93;85.64;98621.65;103287;1105;83489;-71
2021/01/25 00:35:15;;;;;;;35.27;20.90;;;;;;;0.96;85.55;98624.77;103280;1105;72320;-72
2021/01/25 00:37:21;;;;;;;38.07;21.37;;;;;;;0.96;85.61;98627.42;103314;1105;86049;-70
2021/01/25 00:39:26;;;;;;;37.20;22.30;;;;;;;0.98;85.55;98632.59;103250;1106;79286;-71
2021/01/25 00:41:32;;;;;;;38.53;21.07;;;;;;;0.98;85.42;98630.77;103297;1106;63723;-66
2021/01/25 00:43:38;;;;;;;33.23;20.00;;;;;;;0.95;85.98;98630.27;103197;1105;84282;-66
2021/01/25 00:45:44;;;;;;;33.67;19.77;;;;;;;0.96;85.66;98618.65;103314;1105;71843;-65
2021/01/25 00:47:49;;;;;;;39.47;21.67;;;;;;;0.97;85.56;98618.47;103294;1105;86181;-65
2021/01/25 00:49:55;;;;;;;33.10;18.70;;;;;;;0.94;85.81;98624.13;103296;1104;77821;-65
2021/01/25 00:52:01;;;;;;;34.75;20.35;;;;;;;0.87;85.86;98623.16;103320;1105;64783;-69
2021/01/25 00:54:11;;;;;;;35.23;19.63;;;;;;;0.90;85.41;98628.14;103228;1105;83906;-70
2021/01/25 00:56:23;;;;;;;35.43;20.23;;;;;;;0.96;85.66;98626.63;103309;1105;72154;-69
2021/01/25 00:58:28;;;;;;;32.30;18.80;;;;;;;0.97;85.58;98630.92;103338;1105;83823;-68
2021/01/25 01:00:38;;;;;;;36.10;20.37;;;;;;;0.97;85.68;98638.89;103268;1105;77936;-68
2021/01/25 01:02:43;;;;;;;33.50;20.23;;;;;;;0.98;85.50;98633.42;103303;1106;64691;-62
2021/01/25 01:04:49;;;;;;;33.37;18.77;;;;;;;1.02;85.46;98629.41;103300;1105;84515;-64
2021/01/25 01:06:55;;;;;;;30.73;18.47;;;;;;;1.00;85.40;98631.41;103262;1105;71425;-63
2021/01/25 01:09:04;;;;;;;31.57;18.73;;;;;;;1.01;85.43;98629.59;103298;1105;84343;-63
2021/01/25 01:11:10;;;;;;;34.37;19.43;;;;;;;1.04;85.37;98634.56;103303;1105;77703;-64
2021/01/25 01:13:16;;;;;;;32.97;19.47;;;;;;;1.02;85.25;98640.04;103275;1105;64914;-64
2021/01/25 01:15:21;;;;;;;32.23;18.37;;;;;;;0.98;85.25;98638.74;103286;1106;84426;-64
2021/01/25 01:17:27;;;;;;;32.40;19.20;;;;;;;0.98;85.27;98649.38;103305;1105;73432;-69
2021/01/25 01:19:33;;;;;;;31.47;20.00;;;;;;;0.95;85.38;98643.56;103297;1105;84210;-65
2021/01/25 01:21:38;;;;;;;32.37;18.83;;;;;;;0.97;85.28;98652.19;103287;1105;79632;-74
2021/01/25 01:23:47;;;;;;;34.10;19.53;;;;;;;0.97;85.43;98641.55;103270;1105;64854;-74
2021/01/25 01:25:53;;;;;;;29.80;18.30;;;;;;;0.96;85.37;98659.33;103282;1105;83321;-75
2021/01/25 01:27:59;;;;;;;34.77;20.10;;;;;;;1.01;85.32;98653.52;103279;1105;72823;-75
2021/01/25 01:30:07;;;;;;;31.07;18.97;;;;;;;0.97;85.18;98658.34;103306;1105;84812;-75
2021/01/25 01:32:13;;;;;;;31.17;19.70;;;;;;;1.00;85.22;98652.69;103305;1105;77630;-67
2021/01/25 01:34:19;;;;;;;32.07;19.80;;;;;;;1.05;85.30;98647.67;104372;1105;64838;-71
2021/01/25 01:36:24;;;;;;;27.60;17.83;;;;;;;1.01;85.24;98646.38;103248;1106;84001;-72
2021/01/25 01:38:31;;;;;;;33.00;18.70;;;;;;;1.02;85.16;98648.02;103292;1105;73033;-75
2021/01/25 01:40:36;;;;;;;34.93;20.57;;;;;;;1.02;85.26;98652.50;103294;1105;86084;-75
2021/01/25 01:42:43;;;;;;;35.23;20.03;;;;;;;1.04;85.31;98653.17;103318;1105;79554;-64
2021/01/25 01:44:49;;;;;;;30.33;18.40;;;;;;;1.06;85.41;98648.51;103282;1105;64915;-67
2021/01/25 01:46:56;;;;;;;31.43;20.50;;;;;;;1.07;85.26;98656.30;103254;1105;84180;-74
2021/01/25 01:49:02;;;;;;;30.53;18.83;;;;;;;1.11;85.11;98651.47;103298;1105;72125;-76
2021/01/25 01:51:12;;;;;;;32.03;19.23;;;;;;;1.08;85.30;98659.79;103261;1105;85811;-76
2021/01/25 01:53:18;;;;;;;35.47;19.87;;;;;;;1.04;85.28;98659.30;103267;1105;80116;-75
2021/01/25 01:55:25;;;;;;;30.13;19.67;;;;;;;1.06;85.19;98661.80;103316;1105;64848;-76
2021/01/25 01:57:34;;;;;;;29.87;18.33;;;;;;;1.11;85.31;98656.80;103337;1105;83157;-67
2021/01/25 01:59:40;;;;;;;33.13;18.80;;;;;;;1.10;85.14;98652.47;103389;1106;71480;-65
2021/01/25 02:01:46;;;;;;;28.47;17.67;;;;;;;1.14;85.26;98643.16;103371;1105;85397;-65
2021/01/25 02:03:52;;;;;;;32.63;19.27;;;;;;;1.17;85.29;98642.81;103269;1106;78126;-64
2021/01/25 02:06:00;;;;;;;35.67;21.50;;;;;;;1.17;85.13;98650.80;103320;1105;64844;-63
2021/01/25 02:08:10;;;;;;;31.27;19.70;;;;;;;1.20;85.06;98647.79;103250;1105;83810;-70
2021/01/25 02:10:19;;;;;;;31.03;19.47;;;;;;;1.24;85.10;98643.77;103306;1106;72531;-70
2021/01/25 02:12:27;;;;;;;29.93;18.03;;;;;;;1.24;85.19;98654.41;103378;1106;84086;-70
2021/01/25 02:14:34;;;;;;;28.97;18.57;;;;;;;1.26;84.92;98656.91;103286;1105;79749;-70
2021/01/25 02:16:40;;;;;;;34.10;19.20;;;;;;;1.23;85.07;98658.09;103285;1105;64869;-69
2021/01/25 02:18:46;;;;;;;32.80;18.80;;;;;;;1.23;84.99;98659.91;103301;1105;83824;-70
2021/01/25 02:20:52;;;;;;;32.17;18.83;;;;;;;1.22;84.88;98655.58;103282;1105;72857;-71
2021/01/25 02:23:46;;;;;;;30.55;19.05;;;;;;;1.24;85.36;98662.38;103274;1105;84413;-65
2021/01/25 02:26:03;;;;;;;29.50;17.63;;;;;;;1.29;85.07;98657.40;103264;1105;78465;-64
2021/01/25 02:28:09;;;;;;;32.37;18.00;;;;;;;1.29;85.04;98661.89;103357;1105;64949;-65
2021/01/25 02:30:19;;;;;;;30.90;18.60;;;;;;;1.25;84.93;98660.56;103302;1105;81847;-67
2021/01/25 02:32:26;;;;;;;29.23;17.33;;;;;;;1.26;85.02;98668.38;103270;1105;73052;-71
2021/01/25 02:34:36;;;;;;;28.87;18.33;;;;;;;1.25;84.92;98661.39;103264;1105;85100;-76
2021/01/25 02:36:42;;;;;;;30.50;19.03;;;;;;;1.27;84.91;98664.70;103290;1105;78905;-67
2021/01/25 02:38:52;;;;;;;27.27;16.93;;;;;;;1.26;85.06;98659.57;103276;1105;64828;-67
2021/01/25 02:41:00;;;;;;;29.13;17.20;;;;;;;1.27;85.19;98663.87;103283;1106;83775;-67
2021/01/25 02:43:07;;;;;;;29.23;17.53;;;;;;;1.28;85.13;98663.71;103333;1105;72058;-67
2021/01/25 02:45:17;;;;;;;29.30;18.00;;;;;;;1.29;85.15;98661.89;103277;1105;85239;-65
2021/01/25 02:47:24;;;;;;;29.35;17.85;;;;;;;1.30;84.80;98674.16;103327;1105;77817;-64
2021/01/25 02:49:30;;;;;;;26.97;17.57;;;;;;;1.29;85.02;98677.84;103287;1106;64805;-66
2021/01/25 02:51:36;;;;;;;26.53;16.03;;;;;;;1.32;84.85;98670.33;103277;1105;84214;-65
2021/01/25 02:53:42;;;;;;;29.23;17.53;;;;;;;1.34;85.00;98667.52;103280;1105;73372;-65
2021/01/25 02:55:48;;;;;;;28.83;17.47;;;;;;;1.29;85.01;98672.52;103334;1105;86408;-65
2021/01/25 02:57:55;;;;;;;30.77;18.03;;;;;;;1.31;84.95;98675.83;103268;1105;78735;-65
2021/01/25 03:00:03;;;;;;;30.90;17.30;;;;;;;1.32;84.82;98672.98;103297;1105;64902;-68
2021/01/25 03:02:10;;;;;;;27.50;17.23;;;;;;;1.29;84.83;98673.36;103290;1105;83343;-78
2021/01/25 03:04:16;;;;;;;27.85;17.50;;;;;;;1.30;85.05;98680.31;103347;1106;72691;-74
2021/01/25 03:06:24;;;;;;;28.47;18.17;;;;;;;1.27;84.91;98669.19;103338;1105;85420;-72
2021/01/25 03:08:30;;;;;;;29.30;17.40;;;;;;;1.21;84.87;98670.70;103257;1105;79022;-77
2021/01/25 03:10:35;;;;;;;30.53;18.27;;;;;;;1.24;84.73;98670.36;103295;1105;65241;-78
2021/01/25 03:12:41;;;;;;;31.00;18.03;;;;;;;1.26;84.69;98664.89;103344;1105;82353;-67
2021/01/25 03:14:50;;;;;;;30.37;18.50;;;;;;;1.28;85.02;98663.71;103313;1105;72352;-67
2021/01/25 03:16:56;;;;;;;28.70;17.73;;;;;;;1.28;84.81;98661.05;103285;1106;85877;-77
2021/01/25 03:19:01;;;;;;;31.07;17.57;;;;;;;1.27;84.96;98667.36;103319;1105;79062;-77
2021/01/25 03:21:07;;;;;;;28.10;17.10;;;;;;;1.19;84.99;98675.37;103336;1105;64863;-77
2021/01/25 03:23:13;;;;;;;30.50;18.80;;;;;;;1.20;85.06;98669.06;103347;1105;81848;-69
2021/01/25 03:25:18;;;;;;;34.07;18.97;;;;;;;1.18;84.72;98676.39;103322;1105;71745;-67
2021/01/25 03:27:24;;;;;;;30.37;18.90;;;;;;;1.18;85.03;98671.08;103312;1106;84732;-77
2021/01/25 03:29:30;;;;;;;31.73;17.73;;;;;;;1.23;85.00;98676.70;103311;1105;77904;-76
2021/01/25 03:31:38;;;;;;;31.67;17.93;;;;;;;1.24;84.94;98673.02;103293;1105;64909;-68
2021/01/25 03:33:44;;;;;;;26.30;16.60;;;;;;;1.22;85.22;98677.69;103274;1106;83814;-69
2021/01/25 03:35:50;;;;;;;27.77;17.20;;;;;;;1.26;84.89;98676.36;103282;1106;72693;-68
2021/01/25 03:37:55;;;;;;;29.40;17.20;;;;;;;1.24;84.67;98674.87;103333;1105;84231;-76
2021/01/25 03:40:01;;;;;;;29.03;17.47;;;;;;;1.30;85.08;98680.31;103278;1105;78541;-74
2021/01/25 03:42:08;;;;;;;27.50;17.37;;;;;;;1.30;84.70;98677.66;103320;1105;64665;-75
2021/01/25 03:44:13;;;;;;;27.83;17.70;;;;;;;1.32;85.13;98680.97;103343;1105;82215;-77
2021/01/25 03:46:20;;;;;;;28.13;17.50;;;;;;;1.34;84.89;98680.81;103324;1105;72387;-77
2021/01/25 03:48:26;;;;;;;30.43;17.20;;;;;;;1.33;85.01;98681.80;103301;1106;85328;-67
2021/01/25 03:50:31;;;;;;;28.70;17.95;;;;;;;1.34;84.79;98676.33;103313;1105;78719;-68
2021/01/25 03:52:37;;;;;;;30.20;17.70;;;;;;;1.34;85.00;98676.33;103311;1105;64898;-78
2021/01/25 03:54:42;;;;;;;27.27;16.90;;;;;;;1.29;84.94;98681.34;103321;1106;82991;-74
2021/01/25 03:56:48;;;;;;;28.70;15.67;;;;;;;1.30;84.93;98693.62;103267;1105;71247;-66
2021/01/25 03:58:56;;;;;;;24.87;16.43;;;;;;;1.30;84.78;98688.30;103281;1105;85130;-70
2021/01/25 04:01:02;;;;;;;27.33;16.63;;;;;;;1.31;84.76;98689.13;103257;1106;78326;-73
2021/01/25 04:03:08;;;;;;;25.93;16.57;;;;;;;1.30;84.86;98690.95;103342;1105;64841;-71
2021/01/25 04:05:14;;;;;;;26.30;15.40;;;;;;;1.28;84.99;98692.13;103291;1105;82134;-77
2021/01/25 04:07:20;;;;;;;25.87;15.87;;;;;;;1.29;84.96;98691.98;103272;1105;73766;-65
2021/01/25 04:09:28;;;;;;;27.40;16.85;;;;;;;1.33;84.87;98701.25;103293;1105;85582;-65
2021/01/25 04:11:35;;;;;;;24.67;14.77;;;;;;;1.33;84.94;98711.89;103287;1105;79233;-76
2021/01/25 04:13:40;;;;;;;24.87;15.83;;;;;;;1.32;84.91;98710.22;103294;1105;64918;-76
2021/01/25 04:15:46;;;;;;;23.73;15.97;;;;;;;1.36;85.07;98713.37;103269;1105;84264;-77
2021/01/25 04:17:52;;;;;;;26.60;16.47;;;;;;;1.35;84.69;98709.88;103341;1105;71657;-76
2021/01/25 04:20:00;;;;;;;24.03;15.20;;;;;;;1.36;84.92;98716.88;103293;1105;86436;-77
2021/01/25 04:22:06;;;;;;;27.40;16.20;;;;;;;1.40;85.13;98717.37;103290;1105;80208;-76
2021/01/25 04:24:14;;;;;;;25.50;15.87;;;;;;;1.39;84.67;98721.02;103264;1105;64790;-77
2021/01/25 04:26:23;;;;;;;27.07;16.13;;;;;;;1.37;85.13;98718.55;103285;1105;82254;-78
2021/01/25 04:28:28;;;;;;;25.73;16.13;;;;;;;1.36;84.82;98724.02;103328;1105;73901;-76
2021/01/25 04:30:34;;;;;;;28.20;15.90;;;;;;;1.34;84.67;98728.69;103327;1105;85753;-77
2021/01/25 04:32:40;;;;;;;23.90;15.73;;;;;;;1.33;84.88;98717.22;103308;1105;79589;-66
2021/01/25 04:34:49;;;;;;;22.80;15.63;;;;;;;1.32;84.94;98722.72;103298;1105;64892;-65
2021/01/25 04:36:55;;;;;;;26.70;16.43;;;;;;;1.32;85.00;98725.38;103268;1105;84833;-65
2021/01/25 04:39:01;;;;;;;26.43;16.23;;;;;;;1.35;84.77;98715.20;103284;1105;71901;-65
2021/01/25 04:41:10;;;;;;;25.37;16.10;;;;;;;1.36;84.76;98724.02;103300;1105;84475;-65
2021/01/25 04:43:16;;;;;;;23.87;14.97;;;;;;;1.36;84.90;98722.19;103348;1105;79189;-64
2021/01/25 04:45:22;;;;;;;25.10;16.17;;;;;;;1.36;84.64;98716.88;103273;1105;64665;-65
2021/01/25 04:47:29;;;;;;;23.13;15.33;;;;;;;1.34;84.55;98712.73;103274;1105;83707;-65
2021/01/25 04:49:37;;;;;;;24.33;15.67;;;;;;;1.29;84.84;98712.42;103292;1105;71682;-66
2021/01/25 04:51:44;;;;;;;27.37;15.83;;;;;;;1.27;85.10;98707.25;103296;1105;85739;-74
2021/01/25 04:53:50;;;;;;;22.47;14.87;;;;;;;1.27;84.84;98715.23;103249;1105;80079;-74
2021/01/25 04:55:56;;;;;;;26.67;16.27;;;;;;;1.26;84.87;98716.26;103292;1105;64867;-74
2021/01/25 04:58:03;;;;;;;23.70;15.80;;;;;;;1.26;84.92;98710.94;103306;1105;83826;-66
2021/01/25 05:00:11;;;;;;;24.60;15.70;;;;;;;1.26;84.94;98715.42;103279;1105;73068;-65
2021/01/25 05:02:17;;;;;;;27.70;15.60;;;;;;;1.24;84.98;98718.23;103309;1105;83685;-65
2021/01/25 05:04:22;;;;;;;24.33;14.87;;;;;;;1.21;84.82;98723.09;103268;1105;79908;-65
2021/01/25 05:06:28;;;;;;;24.70;15.40;;;;;;;1.25;84.76;98711.92;103318;1106;64917;-73
2021/01/25 05:08:33;;;;;;;27.83;15.90;;;;;;;1.23;84.80;98708.62;103266;1105;82917;-75
2021/01/25 05:10:40;;;;;;;24.10;15.50;;;;;;;1.16;85.02;98718.27;103300;1105;71264;-74
2021/01/25 05:12:48;;;;;;;24.40;14.87;;;;;;;1.13;85.08;98719.44;103340;1105;84123;-75
2021/01/25 05:14:54;;;;;;;24.90;15.93;;;;;;;1.10;84.91;98718.94;103342;1105;78498;-75
2021/01/25 05:16:59;;;;;;;23.67;15.03;;;;;;;1.08;84.81;98724.44;103357;1105;65442;-75
2021/01/25 05:19:06;;;;;;;25.13;14.90;;;;;;;1.07;85.12;98727.28;103368;1105;84660;-75
2021/01/25 05:21:12;;;;;;;23.13;15.10;;;;;;;1.10;85.03;98724.26;103354;1105;73105;-75
2021/01/25 05:23:18;;;;;;;24.97;15.80;;;;;;;1.13;84.95;98721.26;103286;1105;85024;-64
2021/01/25 05:25:29;;;;;;;23.77;14.87;;;;;;;1.14;85.21;98720.27;103267;1105;79003;-66
2021/01/25 05:27:35;;;;;;;25.27;16.13;;;;;;;1.17;84.89;98727.91;103308;1105;64841;-74
2021/01/25 05:29:41;;;;;;;26.50;16.33;;;;;;;1.19;84.86;98728.56;103325;1105;83302;-74
2021/01/25 05:31:51;;;;;;;25.20;15.77;;;;;;;1.19;85.15;98724.08;103293;1105;73157;-74
2021/01/25 05:33:57;;;;;;;28.63;16.50;;;;;;;1.22;84.84;98724.73;103323;1105;84589;-75
2021/01/25 05:36:05;;;;;;;24.37;15.67;;;;;;;1.16;85.20;98723.58;103266;1105;79734;-75
2021/01/25 05:38:12;;;;;;;23.97;14.80;;;;;;;1.11;85.16;98737.40;103308;1106;64888;-64
2021/01/25 05:40:20;;;;;;;23.33;15.60;;;;;;;1.08;85.14;98728.92;103284;1105;84607;-65
2021/01/25 05:42:36;;;;;;;25.57;16.20;;;;;;;1.05;85.06;98732.75;103328;1105;72893;-65
2021/01/25 05:44:42;;;;;;;26.03;15.80;;;;;;;1.06;84.83;98747.72;103309;1105;85150;-65
2021/01/25 05:46:47;;;;;;;24.87;16.17;;;;;;;1.06;85.18;98744.22;103237;1104;78444;-79
2021/01/25 05:49:00;;;;;;;23.60;15.10;;;;;;;1.05;85.02;98734.58;103291;1105;64857;-76
2021/01/25 05:51:17;;;;;;;23.43;15.87;;;;;;;1.06;85.16;98744.22;103269;1105;83805;-76
2021/01/25 05:53:28;;;;;;;24.87;15.07;;;;;;;1.00;85.32;98744.89;103353;1105;72073;-65
2021/01/25 05:55:34;;;;;;;24.37;15.13;;;;;;;0.99;85.30;98738.74;103284;1105;85093;-64
2021/01/25 05:57:40;;;;;;;23.53;14.93;;;;;;;1.00;84.97;98742.23;103297;1105;79071;-74
2021/01/25 05:59:46;;;;;;;25.13;14.67;;;;;;;1.05;85.09;98737.23;103285;1105;64805;-76
2021/01/25 06:01:52;;;;;;;22.63;14.60;;;;;;;1.03;85.06;98736.59;103281;1105;84569;-66
2021/01/25 06:03:59;;;;;;;22.57;14.30;;;;;;;0.98;85.35;98739.77;103282;1105;73173;-65
2021/01/25 06:06:08;;;;;;;23.43;14.60;;;;;;;0.98;85.21;98730.95;103289;1106;86675;-65
2021/01/25 06:08:29;;;;;;;22.97;14.67;;;;;;;1.01;85.14;98742.08;103296;1105;79300;-76
2021/01/25 06:10:48;;;;;;;22.53;14.47;;;;;;;1.04;85.10;98744.37;103305;1105;64857;-75
2021/01/25 06:13:08;;;;;;;23.57;14.17;;;;;;;1.06;85.21;98737.09;103295;1105;83055;-65
2021/01/25 06:15:22;;;;;;;22.93;15.00;;;;;;;1.03;85.19;98736.59;103281;1106;73486;-66
2021/01/25 06:17:28;;;;;;;20.90;15.17;;;;;;;1.04;85.22;98736.40;103302;1106;84762;-64
2021/01/25 06:19:34;;;;;;;26.93;15.73;;;;;;;1.04;85.37;98743.57;103280;1105;77816;-65
2021/01/25 06:21:42;;;;;;;25.33;16.47;;;;;;;1.00;85.40;98742.23;103286;1105;64834;-75
2021/01/25 06:23:54;;;;;;;26.47;16.03;;;;;;;0.96;85.33;98740.93;103297;1105;83955;-74
2021/01/25 06:26:00;;;;;;;23.83;15.07;;;;;;;0.99;85.26;98745.91;103329;1105;71716;-75
2021/01/25 06:28:07;;;;;;;29.60;17.10;;;;;;;1.00;85.16;98743.07;103306;1105;84106;-66
2021/01/25 06:30:17;;;;;;;25.67;16.13;;;;;;;1.01;85.36;98743.91;103264;1105;77381;-66
2021/01/25 06:32:31;;;;;;;24.03;15.33;;;;;;;0.99;85.44;98741.41;103275;1105;64889;-75
2021/01/25 06:34:39;;;;;;;;;;;;;;;1.00;85.36;98736.92;103331;1105;82884;-75
2021/01/25 06:36:50;;;;;;;24.67;15.70;;;;;;;0.99;85.31;98736.09;103276;1105;72318;-65
2021/01/25 06:38:57;;;;;;;22.87;15.27;;;;;;;1.02;85.29;98746.38;103309;1105;85064;-66
2021/01/25 06:41:11;;;;;;;24.07;16.07;;;;;;;0.99;85.55;98741.41;103271;1105;79141;-66
2021/01/25 06:43:20;;;;;;;26.43;16.30;;;;;;;1.02;85.37;98748.20;103263;1105;64787;-75
2021/01/25 06:45:29;;;;;;;25.20;16.10;;;;;;;1.00;85.22;98751.05;103283;1104;83541;-75
2021/01/25 06:47:39;;;;;;;28.05;17.65;;;;;;;1.01;85.39;98751.88;103292;1105;72970;-75
2021/01/25 06:49:49;;;;;;;24.93;16.37;;;;;;;0.99;85.45;98767.98;103307;1105;85448;-75
2021/01/25 06:51:56;;;;;;;23.97;16.40;;;;;;;0.97;85.39;98769.16;103260;1106;79534;-74
2021/01/25 06:54:06;;;;;;;23.43;15.80;;;;;;;0.99;85.70;98762.67;103278;1105;64920;-75
2021/01/25 06:56:12;;;;;;;28.55;17.05;;;;;;;1.02;85.42;98762.34;103294;1105;82125;-75
2021/01/25 06:58:18;;;;;;;27.27;16.33;;;;;;;1.01;85.36;98762.52;103277;1106;71949;-75
2021/01/25 07:00:27;;;;;;;27.90;16.40;;;;;;;0.99;85.59;98757.35;103291;1105;85288;-75
2021/01/25 07:02:33;;;;;;;24.40;16.10;;;;;;;0.99;85.64;98772.50;103329;1106;79191;-66
2021/01/25 07:04:47;;;;;;;25.60;15.57;;;;;;;1.03;85.60;98773.80;103300;1105;64950;-65
2021/01/25 07:06:57;;;;;;;27.00;16.43;;;;;;;1.06;85.37;98781.45;103280;1105;82701;-65
2021/01/25 07:09:07;;;;;;;27.27;16.60;;;;;;;1.07;85.57;98783.12;103299;1105;72788;-65
2021/01/25 07:11:13;;;;;;;27.13;16.93;;;;;;;1.09;85.46;98786.43;103298;1105;85466;-66
2021/01/25 07:13:19;;;;;;;24.80;16.67;;;;;;;1.09;85.54;98783.77;103241;1106;79372;-77
2021/01/25 07:15:26;;;;;;;27.83;17.77;;;;;;;1.11;85.58;98785.27;103293;1106;64873;-74
2021/01/25 07:17:33;;;;;;;26.30;16.80;;;;;;;1.13;85.69;98787.73;103275;1105;82848;-75
2021/01/25 07:19:42;;;;;;;25.23;15.93;;;;;;;1.11;85.91;98781.77;103290;1105;71045;-74
2021/01/25 07:21:51;;;;;;;26.77;16.60;;;;;;;1.16;85.89;98779.42;103312;1105;84965;-73
2021/01/25 07:24:01;;;;;;;27.10;17.07;;;;;;;1.23;85.50;98783.09;103298;1105;78618;-76
2021/01/25 07:26:07;;;;;;;28.33;18.20;;;;;;;1.30;85.76;98775.23;103270;1106;64809;-74
2021/01/25 07:28:13;;;;;;;25.83;16.63;;;;;;;1.34;85.64;98774.74;103269;1105;83591;-75
2021/01/25 07:30:21;;;;;;;29.87;19.33;;;;;;;1.38;85.73;98772.55;103344;1105;71975;-75
2021/01/25 07:32:28;;;;;;;31.47;19.80;;;;;;;1.35;85.71;98772.89;103303;1105;84339;-65
2021/01/25 07:34:34;;;;;;;30.87;20.23;;;;;;;1.36;85.48;98775.40;103246;1105;79418;-65
2021/01/25 07:36:41;;;;;;;35.70;22.20;;;;;;;1.37;85.66;98777.06;103320;1105;64832;-69
2021/01/25 07:38:46;;;;;;;35.10;22.40;;;;;;;1.38;85.59;98776.05;103324;1105;83345;-65
2021/01/25 07:40:52;;;;;;;35.17;22.13;;;;;;;1.46;85.42;98784.00;103285;1105;73306;-67
2021/01/25 07:43:01;;;;;;;33.87;22.33;;;;;;;1.50;85.32;98782.67;103286;1105;86531;-75
2021/01/25 07:45:09;;;;;;;36.13;21.27;;;;;;;1.49;85.20;98775.68;103307;1105;77487;-77
2021/01/25 07:47:21;;;;;;;33.07;21.37;;;;;;;1.51;85.32;98773.67;103249;1105;64672;-76
2021/01/25 07:49:30;;;;;;;37.37;21.97;;;;;;;1.50;85.30;98774.69;103263;1105;82723;-77
2021/01/25 07:51:37;;;;;;;33.73;20.73;;;;;;;1.44;85.24;98767.39;103325;1105;72908;-74
2021/01/25 07:53:43;;;;;;;32.83;21.43;;;;;;;1.39;85.47;98772.40;103290;1105;84775;-75
2021/01/25 07:55:52;;;;;;;36.77;22.73;;;;;;;1.41;85.29;98770.39;103261;1105;78540;-76
2021/01/25 07:58:08;;;;;;;35.33;22.37;;;;;;;1.41;85.52;98769.55;103327;1105;64812;-76
2021/01/25 08:00:24;;;;;;;33.97;21.70;;;;;;;1.45;85.33;98779.70;103317;1105;82384;-75
2021/01/25 08:02:30;;;;;;;35.07;22.43;;;;;;;1.50;85.34;98781.84;103336;1105;70975;-73
2021/01/25 08:04:40;;;;;;;36.57;22.10;;;;;;;1.53;85.33;98787.66;103276;1105;83918;-73
2021/01/25 08:06:46;;;;;;;40.50;24.17;;;;;;;1.52;85.49;98782.48;103238;1105;78809;-77
2021/01/25 08:08:52;;;;;;;35.67;22.73;;;;;;;1.51;85.28;98791.49;103303;1105;64908;-75
2021/01/25 08:11:00;;;;;;;39.83;26.23;;;;;;;1.50;85.30;98789.81;103277;1106;83876;-73
2021/01/25 08:13:15;;;;;;;41.77;25.90;;;;;;;1.46;85.07;98791.98;103301;1105;70929;-65
2021/01/25 08:15:29;;;;;;;39.83;24.23;;;;;;;1.45;85.42;98790.34;103298;1105;85468;-64
2021/01/25 08:17:39;;;;;;;72.20;42.10;;;;;;;1.39;85.49;98792.84;103304;1105;78642;-70
2021/01/25 08:19:49;;;;;;;43.77;26.50;;;;;;;1.42;85.07;98788.02;103289;1106;64818;-74
2021/01/25 08:22:02;;;;;;;39.97;24.37;;;;;;;1.39;85.37;98793.68;103310;1105;84784;-73
2021/01/25 08:24:12;;;;;;;32.67;21.57;;;;;;;1.40;85.31;98797.17;103362;1105;72435;-74
2021/01/25 08:26:25;;;;;;;35.57;22.47;;;;;;;1.35;85.32;98795.01;103275;1105;84141;-75
2021/01/25 08:28:37;;;;;;;35.17;22.50;;;;;;;1.36;85.39;98794.02;103263;1105;77646;-74
2021/01/25 08:30:47;;;;;;;45.00;27.00;;;;;;;1.34;85.42;98797.84;103307;1105;64844;-74
2021/01/25 08:32:56;;;;;;;45.20;24.20;;;;;;;1.36;85.33;98788.70;103260;1105;83962;-63
2021/01/25 08:35:06;;;;;;;58.57;32.30;;;;;;;1.40;85.41;98800.64;103302;1105;71945;-67
2021/01/25 08:37:24;;;;;;;58.30;35.03;;;;;;;1.42;85.45;98796.00;103348;1105;84452;-67
2021/01/25 08:39:39;;;;;;;42.50;26.77;;;;;;;1.40;85.32;98797.98;103351;1105;78327;-67
2021/01/25 08:41:53;;;;;;;45.93;27.10;;;;;;;1.40;85.54;98797.17;103354;1105;64905;-65
2021/01/25 08:44:03;;;;;;;41.77;25.45;;;;;;;1.42;85.18;98795.17;103309;1105;83476;-67
2021/01/25 08:46:19;;;;;;;47.53;29.37;;;;;;;1.42;85.53;98796.00;103323;1106;72052;-67
2021/01/25 08:48:33;;;;;;;50.60;29.23;;;;;;;1.44;85.04;98798.48;103290;1105;85196;-67
2021/01/25 08:50:40;;;;;;;46.05;28.77;;;;;;;1.44;85.39;98788.67;103279;1105;78883;-67
2021/01/25 08:52:45;;;;;;;43.83;28.00;;;;;;;1.45;85.41;98798.33;103293;1105;64876;-74
2021/01/25 08:54:51;;;;;;;43.27;26.43;;;;;;;1.48;85.56;98790.00;103261;1105;84697;-74
2021/01/25 08:57:00;;;;;;;39.50;23.73;;;;;;;1.47;85.27;98793.66;103318;1105;72498;-68
2021/01/25 08:59:15;;;;;;;35.73;22.20;;;;;;;1.48;85.12;98794.49;103313;1105;85302;-68
2021/01/25 09:01:31;;;;;;;36.00;25.00;;;;;;;1.45;85.34;98795.66;103263;1105;78946;-67
2021/01/25 09:03:39;;;;;;;34.70;24.57;;;;;;;1.50;85.21;98795.14;103324;1105;64841;-71
2021/01/25 09:05:44;;;;;;;35.57;24.20;;;;;;;1.50;85.30;98797.80;103313;1105;83028;-73
2021/01/25 09:07:54;;;;;;;33.37;21.90;;;;;;;1.50;85.49;98795.14;103295;1105;72017;-66
2021/01/25 09:10:00;;;;;;;30.70;19.77;;;;;;;1.48;85.02;98797.98;103311;1105;85604;-66
2021/01/25 09:12:08;;;;;;;30.57;19.87;;;;;;;1.46;85.41;98791.98;103287;1105;78903;-64
2021/01/25 09:14:17;;;;;;;32.40;21.70;;;;;;;1.46;85.12;98791.98;103335;1105;64793;-70
2021/01/25 09:16:23;;;;;;;32.13;21.37;;;;;;;1.47;85.08;98798.97;103317;1105;83598;-67
2021/01/25 09:18:30;;;;;;;29.17;19.03;;;;;;;1.46;85.06;98801.79;103324;1105;71684;-70
2021/01/25 09:20:36;;;;;;;25.70;16.73;;;;;;;1.45;85.23;98810.79;103309;1105;84985;-73
2021/01/25 09:22:42;;;;;;;24.80;15.77;;;;;;;1.44;85.21;98809.95;103320;1105;78840;-74
2021/01/25 09:24:48;;;;;;;26.60;16.17;;;;;;;1.48;84.95;98805.13;103356;1105;64834;-73
2021/01/25 09:26:53;;;;;;;31.13;21.03;;;;;;;1.49;85.15;98807.61;103332;1105;83438;-73
2021/01/25 09:29:02;;;;;;;26.83;17.47;;;;;;;1.50;85.30;98809.28;103308;1105;72406;-72
2021/01/25 09:31:08;;;;;;;25.83;16.83;;;;;;;1.50;85.09;98814.60;103277;1105;85779;-74
2021/01/25 09:33:17;;;;;;;34.83;20.47;;;;;;;1.50;85.47;98819.92;103280;1105;77841;-74
2021/01/25 09:35:26;;;;;;;38.03;24.10;;;;;;;1.50;85.01;98809.28;103336;1105;65004;-73
2021/01/25 09:37:32;;;;;;;42.00;25.17;;;;;;;1.50;85.24;98814.60;103322;1105;83868;-73
2021/01/25 09:39:38;;;;;;;35.03;23.13;;;;;;;1.52;85.22;98817.91;103310;1105;72177;-73
2021/01/25 09:41:46;;;;;;;32.60;22.20;;;;;;;1.52;85.07;98814.42;103317;1105;85290;-67
2021/01/25 09:43:52;;;;;;;27.53;19.33;;;;;;;1.55;84.89;98820.23;103324;1105;77781;-68
2021/01/25 09:45:58;;;;;;;24.10;16.73;;;;;;;1.54;85.13;98805.26;103318;1105;64754;-68
2021/01/25 09:48:08;;;;;;;27.10;17.13;;;;;;;1.57;85.46;98809.41;103325;1105;82158;-73